Time;durP1;ratioP1;P1;durP2;ratioP2;P2;SDS_P1;SDS_P2;PMS_P1;PMS_P2;Temp;Humidity;BMP_temperature;BMP_pressure;BME280_temperature;BME280_humidity;BME280_pressure;Samples;Min_cycle;Max_cycle;Signal;HPM_P1;HPM_P2
2021/12/05 00:21:33;;;;;;;6.70;1.60;;;;;;;12.42;43.25;100840.63;4897731;29;20032;-79
2021/12/05 00:24:06;;;;;;;6.10;1.17;;;;;;;12.39;43.40;100832.25;4897300;29;20032;-79
2021/12/05 00:26:34;;;;;;;8.88;1.88;;;;;;;12.42;43.21;100837.09;4897362;29;20115;-79
2021/12/05 00:32:04;;;;;;;6.13;1.30;;;;;;;12.44;43.37;100835.63;4876936;29;20505;-79
2021/12/05 00:53:41;;;;;;;4.70;1.70;;;;;;;12.35;44.49;100851.28;4897031;29;20587;-79
2021/12/05 01:04:56;;;;;;;6.65;1.95;;;;;;;12.70;43.90;100865.78;4901116;29;20043;-79
2021/12/05 01:12:07;;;;;;;6.00;2.25;;;;;;;12.78;43.74;100884.16;4900707;29;20029;-79
2021/12/05 01:17:04;;;;;;;5.13;0.95;;;;;;;12.62;43.89;100880.31;4900491;29;20055;-79
2021/12/05 01:19:32;;;;;;;6.22;2.03;;;;;;;12.72;43.92;100885.44;4900511;29;20428;-79
2021/12/05 01:22:04;;;;;;;3.90;2.25;;;;;;;13.05;42.87;100895.88;4883636;29;20409;-80
2021/12/05 01:24:59;;;;;;;6.38;1.13;;;;;;;12.86;43.29;100906.41;4900469;29;20035;-80
2021/12/05 01:29:58;;;;;;;3.03;1.10;;;;;;;12.97;42.95;100913.97;4900341;29;20029;-79
2021/12/05 01:41:02;;;;;;;5.65;1.23;;;;;;;12.91;42.85;100914.47;4842195;29;20029;-80
2021/12/05 01:56:45;;;;;;;6.63;2.28;;;;;;;12.66;42.82;100925.13;4900251;29;20039;-78
2021/12/05 02:42:33;;;;;;;9.43;2.63;;;;;;;13.15;42.47;100963.31;4899474;29;20076;-80
2021/12/05 02:45:02;;;;;;;5.50;1.23;;;;;;;13.08;42.52;100971.25;4899045;29;20490;-79
2021/12/05 02:47:29;;;;;;;6.32;1.35;;;;;;;13.22;42.49;100961.72;4898604;29;20054;-79
2021/12/05 02:50:00;;;;;;;3.13;1.40;;;;;;;12.93;43.00;100969.81;4898970;29;20107;-79
2021/12/05 02:52:32;;;;;;;2.20;0.93;;;;;;;12.76;43.12;100976.88;4898826;29;20044;-79
2021/12/05 02:55:08;;;;;;;6.07;1.33;;;;;;;13.19;42.59;100981.56;4899031;29;20055;-79
2021/12/05 03:00:14;;;;;;;9.55;2.13;;;;;;;13.02;42.85;100987.88;4898816;29;20080;-79
2021/12/05 03:02:43;;;;;;;5.28;2.00;;;;;;;13.22;42.36;100994.66;4898749;29;20027;-79
2021/12/05 03:05:14;;;;;;;3.97;1.02;;;;;;;13.26;42.43;100992.88;4898657;29;20024;-79
2021/12/05 03:07:42;;;;;;;4.10;0.93;;;;;;;13.29;42.44;101000.47;4881907;29;20036;-78
2021/12/05 03:10:10;;;;;;;6.78;1.75;;;;;;;13.20;42.59;100996.91;4881736;29;20036;-79
2021/12/05 03:12:38;;;;;;;6.40;1.88;;;;;;;13.13;42.71;100993.81;4898405;29;20048;-79
2021/12/05 03:15:08;;;;;;;3.65;1.13;;;;;;;13.26;42.45;100989.34;4881574;29;20033;-80
2021/12/05 03:17:34;;;;;;;5.60;1.05;;;;;;;13.38;42.13;100999.66;4897657;29;20556;-80
2021/12/05 03:20:00;;;;;;;3.70;0.85;;;;;;;13.39;41.96;101001.28;4897786;29;20037;-79
2021/12/05 03:22:26;;;;;;;6.88;1.45;;;;;;;13.28;42.40;101007.09;4897493;29;20036;-79
2021/12/05 03:24:51;;;;;;;4.13;1.08;;;;;;;13.23;42.58;101004.53;4898382;29;20060;-79
2021/12/05 03:27:17;;;;;;;5.38;1.42;;;;;;;13.04;43.14;101006.75;4898295;29;20040;-79
2021/12/05 03:29:43;;;;;;;4.25;1.00;;;;;;;13.29;42.40;100999.66;4898282;29;20032;-80
2021/12/05 03:32:08;;;;;;;3.13;1.33;;;;;;;13.31;42.27;101011.13;4881487;29;20036;-80
2021/12/05 03:34:34;;;;;;;7.38;0.95;;;;;;;13.09;42.91;100998.38;4898179;29;20037;-79
2021/12/05 03:37:01;;;;;;;6.88;1.15;;;;;;;13.07;42.66;101003.34;4898060;29;20039;-79
2021/12/05 03:39:28;;;;;;;3.72;1.17;;;;;;;12.91;43.18;100996.72;4898072;29;20036;-79
2021/12/05 03:41:54;;;;;;;3.58;1.27;;;;;;;12.90;43.09;100995.94;4898048;29;20376;-79
2021/12/05 03:44:34;;;;;;;9.35;1.25;;;;;;;12.65;43.68;101008.50;4898049;29;20061;-79
2021/12/05 03:47:01;;;;;;;4.05;1.25;;;;;;;13.02;42.98;101011.75;4865797;29;20037;-78
2021/12/05 03:49:28;;;;;;;6.15;1.60;;;;;;;13.09;42.93;101014.03;4897837;29;20117;-79
2021/12/05 03:52:09;;;;;;;4.85;0.82;;;;;;;12.90;43.38;101008.84;4897833;29;20029;-79
2021/12/05 03:54:35;;;;;;;5.85;2.03;;;;;;;13.09;42.99;101005.78;4880958;29;20177;-79
2021/12/05 03:57:02;;;;;;;5.93;1.30;;;;;;;13.16;42.66;101026.13;4897790;29;20111;-79
2021/12/05 03:59:28;;;;;;;3.90;1.20;;;;;;;13.16;42.81;101014.34;4897667;29;20028;-80
2021/12/05 04:01:59;;;;;;;4.50;1.40;;;;;;;13.16;42.74;101030.81;4897766;29;20024;-81
2021/12/05 04:04:25;;;;;;;6.32;2.58;;;;;;;13.20;42.93;101021.63;4897726;29;20029;-79
2021/12/05 04:06:51;;;;;;;5.18;2.20;;;;;;;13.24;42.94;101033.56;4897645;29;20076;-80
2021/12/05 04:09:19;;;;;;;6.45;1.75;;;;;;;13.31;42.60;101033.91;4897624;29;20495;-79
2021/12/05 04:11:57;;;;;;;6.10;1.63;;;;;;;13.29;42.62;101038.88;4896249;29;20028;-79
2021/12/05 04:14:26;;;;;;;8.05;1.30;;;;;;;13.35;42.50;101038.72;4880393;29;20082;-79
2021/12/05 04:16:53;;;;;;;9.93;1.30;;;;;;;13.36;42.53;101052.13;4878932;29;20033;-79
2021/12/05 04:19:19;;;;;;;7.05;1.48;;;;;;;13.17;43.17;101046.13;4878894;29;20029;-79
2021/12/05 04:21:45;;;;;;;7.10;1.42;;;;;;;13.30;42.79;101039.72;4878837;29;20116;-79
2021/12/05 04:24:13;;;;;;;4.07;1.38;;;;;;;13.30;42.98;101048.75;4878772;29;20494;-80
2021/12/05 04:26:39;;;;;;;3.60;1.33;;;;;;;13.19;43.03;101063.88;4878791;29;20037;-79
2021/12/05 04:29:06;;;;;;;3.92;1.20;;;;;;;13.12;43.53;101062.75;4878476;29;20037;-78
2021/12/05 04:31:34;;;;;;;12.82;1.60;;;;;;;13.09;43.51;101077.13;4878709;29;20480;-79
2021/12/05 04:34:00;;;;;;;8.10;1.20;;;;;;;13.10;43.47;101082.28;4878765;29;20043;-79
2021/12/05 04:36:29;;;;;;;2.80;0.75;;;;;;;13.23;43.08;101086.84;4878670;29;20033;-78
2021/12/05 04:38:55;;;;;;;6.88;1.10;;;;;;;13.44;42.72;101091.66;4878402;29;20045;-80
2021/12/05 04:41:23;;;;;;;2.38;0.90;;;;;;;13.58;42.19;101092.31;4878619;29;20563;-79
2021/12/05 04:43:52;;;;;;;3.85;1.10;;;;;;;13.44;42.66;101105.41;4878566;29;20025;-79
2021/12/05 04:46:21;;;;;;;3.08;1.35;;;;;;;13.49;42.51;101097.00;4878644;29;20485;-79
2021/12/05 04:48:50;;;;;;;;;;;;;;;13.47;42.41;101108.31;4879021;29;20041;-79
2021/12/05 04:51:18;;;;;;;4.10;1.13;;;;;;;13.58;42.18;101104.09;4861662;29;19915;-80
2021/12/05 04:53:43;;;;;;;14.18;1.50;;;;;;;13.56;42.28;101122.03;4878341;29;20056;-79
2021/12/05 04:56:09;;;;;;;4.10;1.10;;;;;;;13.71;41.85;101121.53;4878423;29;20029;-79
2021/12/05 04:58:36;;;;;;;3.63;1.00;;;;;;;13.58;42.28;101133.50;4878331;29;20045;-79
2021/12/05 05:01:03;;;;;;;2.72;1.00;;;;;;;13.64;41.98;101137.69;4878367;29;20029;-81
2021/12/05 05:03:29;;;;;;;5.22;1.45;;;;;;;13.73;41.96;101135.75;4878175;29;20029;-80
2021/12/05 05:06:05;;;;;;;5.35;1.08;;;;;;;13.60;42.03;101140.28;4861828;29;20044;-79
2021/12/05 05:08:31;;;;;;;6.82;1.27;;;;;;;13.70;41.78;101147.38;4878539;29;20536;-79
2021/12/05 05:11:03;;;;;;;5.43;1.95;;;;;;;13.65;42.15;101147.53;4878365;29;20029;-79
2021/12/05 05:13:30;;;;;;;4.63;1.30;;;;;;;13.58;42.11;101155.47;4878348;29;20033;-79
2021/12/05 05:15:56;;;;;;;3.92;1.17;;;;;;;13.71;41.89;101151.75;4861670;29;20033;-79
2021/12/05 05:18:24;;;;;;;5.13;2.20;;;;;;;13.51;42.32;101161.44;4878185;29;20476;-79
2021/12/05 05:21:05;;;;;;;2.80;1.50;;;;;;;13.71;41.94;101164.66;4878324;29;20029;-79
2021/12/05 05:40:16;;;;;;;7.00;1.73;;;;;;;13.70;41.79;101160.31;4843562;29;20037;-79
2021/12/05 05:45:50;;;;;;;7.53;2.42;;;;;;;13.62;42.11;101170.16;4881833;29;20248;-79
2021/12/05 05:48:32;;;;;;;9.82;3.00;;;;;;;13.65;41.71;101175.00;4881427;29;20484;-79
2021/12/05 05:50:58;;;;;;;8.60;3.90;;;;;;;13.58;42.25;101185.66;4864670;29;20056;-79
2021/12/05 05:53:24;;;;;;;9.18;2.47;;;;;;;13.74;41.61;101184.03;4881179;29;20049;-79
2021/12/05 05:55:49;;;;;;;5.25;2.40;;;;;;;13.60;42.10;101194.38;4881324;29;20100;-81
2021/12/05 05:58:18;;;;;;;7.88;2.20;;;;;;;13.63;41.96;101201.19;4881125;29;20683;-79
2021/12/05 06:01:00;;;;;;;3.30;1.40;;;;;;;13.69;41.84;101203.44;4881135;29;20029;-79
2021/12/05 06:03:26;;;;;;;4.50;1.73;;;;;;;13.79;41.50;101214.09;4881332;29;20444;-79
2021/12/05 06:06:07;;;;;;;9.38;1.45;;;;;;;13.61;41.63;101217.97;4881102;29;20153;-79
2021/12/05 06:08:35;;;;;;;4.30;1.20;;;;;;;13.73;41.82;101209.91;4881044;29;20036;-79
2021/12/05 06:11:06;;;;;;;6.53;2.25;;;;;;;13.77;41.78;101213.63;4880999;29;20121;-79
2021/12/05 06:13:33;;;;;;;7.53;1.92;;;;;;;13.44;42.56;101218.75;4880973;29;20025;-79
2021/12/05 06:15:59;;;;;;;3.72;1.00;;;;;;;13.39;42.53;101218.91;4880976;29;20473;-80
2021/12/05 06:18:26;;;;;;;3.75;1.50;;;;;;;13.62;42.16;101233.31;4880791;29;20448;-79
2021/12/05 06:20:52;;;;;;;7.97;1.30;;;;;;;13.53;42.37;101244.28;4880806;29;20498;-79
2021/12/05 06:23:18;;;;;;;6.38;2.28;;;;;;;13.57;41.90;101236.22;4880788;29;20036;-79
2021/12/05 06:25:48;;;;;;;2.67;1.00;;;;;;;13.53;42.59;101246.25;4880694;29;20022;-78
2021/12/05 06:28:15;;;;;;;3.00;1.17;;;;;;;13.44;42.27;101253.63;4880794;29;20551;-79
2021/12/05 06:30:54;;;;;;;5.38;1.35;;;;;;;13.23;42.99;101259.72;4880654;29;20044;-79
2021/12/05 06:39:29;;;;;;;7.57;1.40;;;;;;;13.27;42.67;101262.63;4880534;29;20089;-79
2021/12/05 06:47:04;;;;;;;3.80;1.25;;;;;;;13.52;42.19;101269.31;4880656;29;20040;-78
2021/12/05 06:49:30;;;;;;;3.65;0.93;;;;;;;13.32;42.71;101287.19;4880365;29;20033;-79
2021/12/05 06:51:55;;;;;;;5.85;2.75;;;;;;;13.58;41.98;101277.06;4880142;29;20089;-79
2021/12/05 06:54:22;;;;;;;6.32;2.10;;;;;;;13.58;42.14;101290.81;4880134;29;20053;-79
2021/12/05 06:56:48;;;;;;;3.55;1.73;;;;;;;13.60;41.96;101284.97;4880079;29;20373;-78
2021/12/05 06:59:14;;;;;;;5.10;2.75;;;;;;;13.50;42.28;101296.28;4880132;29;20043;-79
2021/12/05 07:01:40;;;;;;;5.15;2.17;;;;;;;13.52;42.36;101291.25;4880110;29;20033;-78
2021/12/05 07:04:15;;;;;;;5.18;2.03;;;;;;;13.70;41.75;101303.13;4880022;29;20029;-79
2021/12/05 07:06:42;;;;;;;5.55;2.20;;;;;;;13.54;42.28;101300.81;4880154;29;20025;-80
2021/12/05 07:09:09;;;;;;;7.00;1.80;;;;;;;13.50;42.19;101308.06;4879940;29;20036;-78
2021/12/05 07:12:34;;;;;;;5.90;3.13;;;;;;;13.50;42.18;101301.75;4879978;29;20040;-79
2021/12/05 07:17:03;;;;;;;13.95;4.65;;;;;;;13.50;42.02;101321.78;4879800;29;20552;-81
2021/12/05 07:19:41;;;;;;;10.13;5.75;;;;;;;13.46;42.33;101325.50;4878850;29;20025;-79
2021/12/05 07:22:23;;;;;;;8.02;4.30;;;;;;;13.50;42.10;101329.22;4878199;29;20164;-78
2021/12/05 07:25:00;;;;;;;8.35;5.72;;;;;;;13.56;41.80;101330.69;4879658;29;20093;-79
2021/12/05 07:41:09;;;;;;;8.32;4.18;;;;;;;13.43;42.11;101350.84;4879698;29;20100;-79
2021/12/05 07:43:35;;;;;;;7.57;6.22;;;;;;;13.54;41.74;101354.94;4879414;29;20034;-79
2021/12/05 07:46:07;;;;;;;9.95;5.78;;;;;;;13.54;41.82;101361.22;4879403;29;20029;-79
2021/12/05 07:48:36;;;;;;;10.27;6.00;;;;;;;13.45;42.16;101368.63;4879547;29;20048;-79
2021/12/05 07:56:53;;;;;;;12.82;8.75;;;;;;;13.47;42.23;101384.78;4858339;29;20501;-80
2021/12/05 08:15:31;;;;;;;9.60;1.88;;;;;;;13.51;41.96;101415.94;4879022;29;20173;-79
2021/12/05 08:17:58;;;;;;;7.85;1.67;;;;;;;13.45;41.86;101417.19;4878802;29;20472;-77
2021/12/05 08:20:35;;;;;;;3.70;1.40;;;;;;;13.39;41.97;101415.75;4878864;29;20036;-77
2021/12/05 08:23:02;;;;;;;4.32;1.35;;;;;;;13.51;41.66;101411.25;4862126;29;20503;-78
2021/12/05 08:25:31;;;;;;;7.55;1.15;;;;;;;13.62;41.14;101417.31;4878839;29;20052;-77
2021/12/05 08:28:23;;;;;;;5.50;1.15;;;;;;;13.56;41.23;101424.06;4862157;29;20048;-76
2021/12/05 08:31:03;;;;;;;4.57;1.35;;;;;;;13.51;41.32;101421.44;4878677;29;20036;-77
2021/12/05 08:34:44;;;;;;;5.35;2.00;;;;;;;13.49;41.39;101424.50;4878897;29;20076;-76
2021/12/05 09:25:07;;;;;;;5.40;1.13;;;;;;;14.15;41.13;101505.06;4870004;29;20453;-77
2021/12/05 09:28:01;;;;;;;4.88;1.00;;;;;;;14.20;41.46;101514.28;4870410;29;20045;-81
2021/12/05 09:53:08;;;;;;;6.40;1.38;;;;;;;14.27;41.07;101534.69;4863158;29;20613;-75
2021/12/05 10:03:23;;;;;;;6.35;1.60;;;;;;;14.55;40.97;101543.53;4859725;29;20036;-81
2021/12/05 10:11:25;;;;;;;3.33;1.30;;;;;;;14.71;40.82;101546.66;4858526;29;20148;-75
2021/12/05 10:17:29;;;;;;;6.68;2.13;;;;;;;14.80;40.34;101544.72;4861155;29;20026;-74
2021/12/05 10:34:34;;;;;;;5.93;2.05;;;;;;;14.66;40.62;101572.38;4861410;29;20059;-74
2021/12/05 10:37:13;;;;;;;4.13;1.30;;;;;;;14.84;40.71;101566.91;4861891;29;20025;-76
2021/12/05 10:39:40;;;;;;;10.85;1.75;;;;;;;14.79;40.94;101572.53;4845322;29;20370;-74
2021/12/05 10:42:38;;;;;;;6.28;1.73;;;;;;;14.85;40.81;101580.34;4861745;29;20073;-75
2021/12/05 10:45:26;;;;;;;21.13;10.10;;;;;;;15.15;40.46;101575.00;4860799;29;20060;-75
2021/12/05 10:47:55;;;;;;;19.42;10.25;;;;;;;15.05;40.65;101575.34;4845000;29;20470;-74
2021/12/05 10:50:43;;;;;;;28.20;10.93;;;;;;;14.76;41.17;101598.75;4859839;29;20072;-81
2021/12/05 10:53:39;;;;;;;9.07;4.68;;;;;;;14.93;40.63;101603.50;4873110;29;20082;-75
2021/12/05 10:56:23;;;;;;;6.93;3.08;;;;;;;14.43;41.20;101604.63;4861025;29;20037;-77
2021/12/05 10:58:59;;;;;;;10.52;4.45;;;;;;;15.01;40.42;101607.38;4843364;29;20117;-74
2021/12/05 11:01:48;;;;;;;10.38;3.85;;;;;;;14.82;40.27;101608.50;4860050;29;20049;-75
2021/12/05 11:04:19;;;;;;;7.95;2.25;;;;;;;15.14;40.50;101607.25;4841255;29;20030;-75
2021/12/05 11:07:08;;;;;;;16.92;6.70;;;;;;;15.30;39.85;101613.06;4843414;29;20030;-75
2021/12/05 11:09:36;;;;;;;10.93;3.33;;;;;;;15.59;39.69;101603.34;4838926;29;20055;-75
2021/12/05 11:12:05;;;;;;;14.48;4.15;;;;;;;15.57;39.80;101611.09;4842225;29;20445;-75
2021/12/05 11:14:38;;;;;;;14.48;5.57;;;;;;;15.77;39.39;101616.00;4859593;29;20501;-75
2021/12/05 11:17:06;;;;;;;12.07;2.72;;;;;;;15.33;40.06;101614.38;4842985;29;20076;-85
2021/12/05 11:19:59;;;;;;;9.65;3.30;;;;;;;15.54;39.89;101624.41;4861448;29;20030;-72
2021/12/05 11:22:38;;;;;;;12.13;4.00;;;;;;;15.63;39.49;101623.63;4857750;29;20112;-75
2021/12/05 11:25:40;;;;;;;10.10;2.80;;;;;;;15.38;40.19;101620.53;4844907;29;20475;-78
2021/12/05 11:28:08;;;;;;;11.60;3.75;;;;;;;15.14;40.95;101626.50;4859985;29;20053;-74
2021/12/05 11:30:36;;;;;;;6.68;1.95;;;;;;;15.69;39.98;101627.84;4861294;29;20438;-73
2021/12/05 11:33:19;;;;;;;4.82;1.83;;;;;;;15.48;40.14;101619.38;4860478;29;20036;-75
2021/12/05 11:35:52;;;;;;;12.30;3.33;;;;;;;15.46;39.94;101619.72;4844400;29;20556;-80
2021/12/05 11:38:22;;;;;;;5.93;1.33;;;;;;;15.73;39.75;101617.78;4860241;29;20729;-74
2021/12/05 11:41:03;;;;;;;6.45;2.38;;;;;;;15.80;39.63;101621.66;4858835;29;20168;-74
2021/12/05 11:43:32;;;;;;;8.43;2.30;;;;;;;15.93;39.23;101602.50;4844248;29;20043;-74
2021/12/05 11:46:12;;;;;;;5.68;1.55;;;;;;;15.71;39.36;101592.50;4855273;29;20135;-75
2021/12/05 11:48:48;;;;;;;7.25;3.28;;;;;;;15.96;39.22;101597.16;4828125;29;20056;-75
2021/12/05 11:51:46;;;;;;;41.10;24.73;;;;;;;15.78;39.32;101607.38;4845623;29;20047;-75
2021/12/05 11:54:22;;;;;;;109.35;71.15;;;;;;;15.75;39.40;101607.25;4859398;29;20076;-75
2021/12/05 11:56:47;;;;;;;12.02;6.57;;;;;;;15.85;39.51;101617.91;4863989;29;20045;-77
2021/12/05 11:59:21;;;;;;;10.65;4.05;;;;;;;15.88;39.19;101621.97;4846594;29;21165;-83
2021/12/05 12:02:05;;;;;;;6.72;3.92;;;;;;;15.78;39.42;101628.63;4861458;29;20496;-75
2021/12/05 12:05:32;;;;;;;11.85;5.20;;;;;;;15.79;39.23;101628.31;4863167;29;20346;-82
2021/12/05 12:08:10;;;;;;;10.73;6.35;;;;;;;15.98;38.93;101633.47;4777702;29;20046;-75
2021/12/05 12:10:48;;;;;;;25.05;16.50;;;;;;;16.01;39.20;101635.53;4853415;29;20056;-77
2021/12/05 12:13:23;;;;;;;6.13;1.85;;;;;;;16.09;38.82;101651.25;4877909;29;20037;-75
2021/12/05 12:16:02;;;;;;;7.93;2.25;;;;;;;16.17;38.76;101646.03;4878300;29;20033;-78
2021/12/05 12:18:34;;;;;;;5.47;2.50;;;;;;;16.22;38.63;101640.38;4879122;29;20033;-76
2021/12/05 12:21:21;;;;;;;4.20;1.73;;;;;;;16.29;38.86;101641.47;4879371;29;20033;-76
2021/12/05 12:23:54;;;;;;;4.65;1.70;;;;;;;16.42;38.59;101631.38;4862030;29;20041;-76
2021/12/05 12:26:20;;;;;;;8.18;2.42;;;;;;;16.34;38.84;101629.47;4843844;29;20032;-74
2021/12/05 12:28:46;;;;;;;56.67;28.85;;;;;;;16.53;38.45;101626.28;4843476;29;20033;-75
2021/12/05 12:31:28;;;;;;;9.95;3.47;;;;;;;16.45;38.29;101624.38;4860153;29;20046;-75
2021/12/05 12:33:57;;;;;;;6.45;2.45;;;;;;;16.49;38.27;101620.63;4845836;29;20033;-74
2021/12/05 12:36:40;;;;;;;13.02;2.28;;;;;;;16.38;38.79;101619.38;4845009;29;20029;-86
2021/12/05 12:39:36;;;;;;;7.03;2.17;;;;;;;16.43;38.81;101610.13;4865587;29;20100;-75
2021/12/05 12:42:10;;;;;;;9.00;2.03;;;;;;;16.27;39.24;101612.63;4841303;29;20033;-75
2021/12/05 12:44:36;;;;;;;7.05;1.77;;;;;;;16.35;38.94;101598.78;4862511;29;20058;-76
2021/12/05 12:47:06;;;;;;;11.38;2.55;;;;;;;16.45;39.01;101611.41;4863699;29;20115;-74
2021/12/05 12:49:37;;;;;;;13.70;1.92;;;;;;;16.28;38.90;101609.53;4858706;29;20458;-73
2021/12/05 12:52:03;;;;;;;9.38;2.10;;;;;;;16.32;39.21;101609.66;4882592;29;20104;-74
2021/12/05 12:54:44;;;;;;;8.98;1.98;;;;;;;16.35;38.97;101603.50;4865525;29;20049;-73
2021/12/05 12:57:20;;;;;;;8.90;2.63;;;;;;;16.32;39.06;101599.47;4869156;29;20036;-74
2021/12/05 12:59:57;;;;;;;4.38;1.98;;;;;;;16.28;39.03;101598.50;4866693;29;20387;-75
2021/12/05 13:02:37;;;;;;;7.60;1.83;;;;;;;16.32;38.88;101601.38;4850055;29;20029;-75
2021/12/05 13:05:39;;;;;;;14.60;6.78;;;;;;;16.47;38.71;101605.53;4849753;29;20017;-74
2021/12/05 13:11:21;;;;;;;10.43;5.30;;;;;;;16.58;38.48;101617.84;4866590;29;20152;-76
2021/12/05 13:13:59;;;;;;;6.53;2.17;;;;;;;16.48;38.65;101626.50;4849480;29;20037;-77
2021/12/05 13:16:32;;;;;;;16.67;5.78;;;;;;;16.60;38.46;101635.66;4866659;29;20029;-78
2021/12/05 13:19:05;;;;;;;7.95;1.90;;;;;;;16.73;38.31;101633.84;4849448;29;20387;-76
2021/12/05 13:21:39;;;;;;;9.95;2.67;;;;;;;16.88;37.70;101644.31;4866652;29;20024;-74
2021/12/05 13:24:29;;;;;;;8.98;2.58;;;;;;;16.90;37.96;101642.03;4865361;29;20096;-79
2021/12/05 13:27:29;;;;;;;8.13;2.67;;;;;;;16.76;37.79;101640.66;4846691;29;20043;-75
2021/12/05 13:29:56;;;;;;;13.02;6.28;;;;;;;16.84;37.99;101648.06;4856201;29;20109;-75
2021/12/05 13:32:25;;;;;;;8.95;3.17;;;;;;;16.94;37.60;101652.44;4863197;29;20057;-74
2021/12/05 13:34:54;;;;;;;8.25;2.53;;;;;;;16.94;37.59;101656.00;4862972;29;20033;-73
2021/12/05 13:37:27;;;;;;;14.20;5.40;;;;;;;17.01;37.60;101653.50;4865036;29;20401;-76
2021/12/05 13:40:15;;;;;;;12.15;3.20;;;;;;;17.00;37.65;101657.38;4865395;29;20068;-74
2021/12/05 13:42:43;;;;;;;18.98;8.82;;;;;;;17.04;37.90;101652.84;4865136;29;20493;-75
2021/12/05 13:45:21;;;;;;;21.00;8.00;;;;;;;16.98;37.73;101659.69;4865756;29;20029;-80
2021/12/05 13:47:52;;;;;;;9.07;3.28;;;;;;;16.80;38.00;101658.19;4866183;29;20033;-75
2021/12/05 13:50:25;;;;;;;13.32;6.35;;;;;;;17.10;37.81;101656.22;4865364;29;20021;-77
2021/12/05 13:53:03;;;;;;;12.43;6.13;;;;;;;17.05;37.69;101657.22;4865376;29;20053;-77
2021/12/05 13:55:50;;;;;;;18.95;7.18;;;;;;;17.03;37.52;101662.25;4865270;29;20036;-76
2021/12/05 13:58:45;;;;;;;13.93;8.02;;;;;;;16.81;37.82;101659.78;4865806;29;20646;-75
2021/12/05 14:01:16;;;;;;;16.42;7.88;;;;;;;16.92;37.69;101658.25;4864740;29;20112;-76
2021/12/05 14:04:08;;;;;;;17.13;8.38;;;;;;;16.97;37.59;101652.56;4865760;29;20124;-76
2021/12/05 14:07:01;;;;;;;9.15;3.50;;;;;;;16.72;37.95;101650.75;4866013;29;20035;-75
2021/12/05 14:09:46;;;;;;;13.93;5.30;;;;;;;16.89;37.65;101653.41;4865922;29;20048;-76
2021/12/05 14:12:24;;;;;;;10.57;5.47;;;;;;;17.01;37.55;101634.19;4865281;29;20029;-75
2021/12/05 14:15:00;;;;;;;14.57;8.30;;;;;;;16.96;37.69;101633.56;4865040;29;20025;-76
2021/12/05 14:17:34;;;;;;;7.68;3.60;;;;;;;16.81;37.66;101646.00;4865154;29;20118;-76
2021/12/05 14:20:08;;;;;;;8.68;3.85;;;;;;;16.65;37.78;101637.44;4865333;29;20111;-76
2021/12/05 14:22:36;;;;;;;15.50;8.82;;;;;;;16.78;37.84;101643.91;4865234;29;20789;-76
2021/12/05 14:25:07;;;;;;;18.40;11.43;;;;;;;16.67;37.72;101637.09;4864655;29;20021;-75
2021/12/05 14:27:37;;;;;;;7.70;3.08;;;;;;;16.54;38.08;101642.50;4872831;29;20223;-74
2021/12/05 14:30:07;;;;;;;8.30;2.65;;;;;;;16.71;37.58;101640.88;4862503;29;20029;-74
2021/12/05 14:32:36;;;;;;;6.40;3.45;;;;;;;16.72;37.50;101640.53;4869261;29;20096;-75
2021/12/05 14:35:16;;;;;;;7.32;2.42;;;;;;;16.55;37.67;101641.38;4864500;29;20033;-75
2021/12/05 14:37:44;;;;;;;10.63;2.70;;;;;;;16.66;37.62;101639.06;4864328;29;20044;-75
2021/12/05 14:40:15;;;;;;;4.97;2.05;;;;;;;16.62;37.64;101638.94;4864609;29;20021;-75
2021/12/05 14:42:44;;;;;;;6.07;1.90;;;;;;;16.50;37.89;101638.00;4864745;29;20116;-74
2021/12/05 14:45:18;;;;;;;7.70;2.42;;;;;;;16.36;38.02;101633.50;4878949;29;20066;-75
2021/12/05 14:47:45;;;;;;;9.55;2.92;;;;;;;16.57;37.86;101638.28;4866650;29;20046;-76
2021/12/05 14:50:18;;;;;;;7.05;2.60;;;;;;;16.57;37.59;101633.59;4847048;29;20029;-75
2021/12/05 14:52:47;;;;;;;10.68;4.63;;;;;;;16.58;37.75;101631.63;4864708;29;20040;-76
2021/12/05 14:55:18;;;;;;;6.00;2.50;;;;;;;16.30;38.31;101634.00;4864733;29;21187;-76
2021/12/05 14:57:50;;;;;;;7.72;2.13;;;;;;;16.31;37.92;101641.94;4864317;29;20028;-76
2021/12/05 15:00:19;;;;;;;7.68;2.63;;;;;;;16.38;38.31;101636.72;4847565;29;20037;-75
2021/12/05 15:02:46;;;;;;;5.72;2.88;;;;;;;16.37;37.90;101635.13;4868032;29;20029;-75
2021/12/05 15:05:14;;;;;;;7.80;2.95;;;;;;;16.44;38.06;101634.59;4879674;29;20108;-75
2021/12/05 15:07:40;;;;;;;18.45;5.72;;;;;;;16.47;37.85;101639.44;4879466;29;20447;-79
2021/12/05 15:10:07;;;;;;;8.45;3.25;;;;;;;16.49;37.81;101645.47;4865135;29;20029;-74
2021/12/05 15:12:35;;;;;;;11.55;4.10;;;;;;;16.42;38.00;101636.09;4869193;29;20033;-76
2021/12/05 15:15:08;;;;;;;15.70;4.93;;;;;;;16.35;38.14;101640.16;4863912;29;20028;-74
2021/12/05 15:17:36;;;;;;;8.70;4.22;;;;;;;16.13;38.45;101645.91;4871627;29;20447;-75
2021/12/05 15:20:23;;;;;;;11.63;3.63;;;;;;;16.03;38.48;101640.75;4877148;29;20140;-76
2021/12/05 15:22:58;;;;;;;9.35;3.53;;;;;;;15.94;38.75;101651.78;4877957;29;20029;-75
2021/12/05 15:25:27;;;;;;;8.35;5.13;;;;;;;15.90;38.76;101653.59;4864163;29;20099;-75
2021/12/05 15:27:54;;;;;;;7.33;3.13;;;;;;;15.88;38.77;101653.09;4879564;29;20025;-74
2021/12/05 15:30:28;;;;;;;6.30;2.80;;;;;;;15.88;38.43;101661.38;4878477;29;20447;-74
2021/12/05 15:32:58;;;;;;;7.72;2.70;;;;;;;15.80;38.61;101665.75;4878231;29;20028;-75
2021/12/05 15:35:24;;;;;;;9.07;3.08;;;;;;;15.67;38.68;101655.72;4876929;29;20021;-75
2021/12/05 15:37:57;;;;;;;12.18;3.63;;;;;;;15.53;39.00;101668.81;4879007;29;20120;-74
2021/12/05 15:40:27;;;;;;;20.48;4.72;;;;;;;15.48;38.69;101672.53;4877088;29;20069;-76
2021/12/05 15:43:03;;;;;;;14.43;4.68;;;;;;;15.37;39.24;101654.72;4878421;29;20029;-80
2021/12/05 15:45:29;;;;;;;6.60;3.47;;;;;;;15.34;39.26;101655.38;4882022;29;20029;-82
2021/12/05 15:47:54;;;;;;;13.38;4.40;;;;;;;15.32;38.88;101654.84;4868865;29;20084;-85
2021/12/05 15:50:23;;;;;;;9.45;4.30;;;;;;;15.27;39.32;101655.84;4870187;29;20020;-83
2021/12/05 15:52:59;;;;;;;8.43;4.07;;;;;;;15.15;39.39;101660.34;4849408;29;20025;-86
2021/12/05 15:55:35;;;;;;;8.27;3.75;;;;;;;15.17;39.24;101667.16;4865692;29;20080;-80
2021/12/05 15:58:08;;;;;;;6.50;2.78;;;;;;;15.11;39.26;101670.38;4859556;29;20059;-79
2021/12/05 16:00:59;;;;;;;7.00;3.28;;;;;;;14.96;39.53;101664.22;4846226;29;20033;-78
2021/12/05 16:03:37;;;;;;;6.68;3.17;;;;;;;14.98;39.20;101664.69;4862867;29;20056;-85
2021/12/05 16:06:04;;;;;;;9.32;3.45;;;;;;;14.86;39.19;101659.00;4863407;29;20044;-82
2021/12/05 16:08:31;;;;;;;21.10;12.43;;;;;;;14.77;39.36;101660.91;4863524;29;20079;-86
2021/12/05 16:11:00;;;;;;;11.95;6.07;;;;;;;14.75;39.17;101662.38;4858531;29;20211;-82
2021/12/05 16:13:41;;;;;;;10.75;4.20;;;;;;;14.53;39.77;101663.25;4872176;29;20048;-78
2021/12/05 16:16:21;;;;;;;11.88;4.00;;;;;;;14.53;39.64;101655.81;4878549;29;20485;-79
2021/12/05 16:18:51;;;;;;;13.38;4.95;;;;;;;14.49;39.55;101665.81;4878222;29;20048;-76
2021/12/05 16:21:20;;;;;;;9.63;3.97;;;;;;;14.32;39.89;101665.69;4878406;29;20033;-76
2021/12/05 16:23:46;;;;;;;9.27;4.10;;;;;;;14.25;40.05;101665.34;4878089;29;20045;-77
2021/12/05 16:26:31;;;;;;;8.40;4.22;;;;;;;14.22;40.20;101660.47;4865333;29;20755;-76
2021/12/05 16:29:04;;;;;;;7.75;4.05;;;;;;;14.25;40.21;101676.34;4861197;29;20041;-79
2021/12/05 16:31:57;;;;;;;9.88;4.25;;;;;;;14.17;40.42;101661.41;4862982;29;20089;-82
2021/12/05 16:34:29;;;;;;;9.25;4.13;;;;;;;14.15;40.77;101666.44;4858903;29;20041;-75
2021/12/05 16:37:02;;;;;;;14.98;5.55;;;;;;;14.28;40.42;101668.28;4864842;29;20029;-75
2021/12/05 16:39:34;;;;;;;13.25;4.93;;;;;;;14.33;40.53;101672.81;4878789;29;20025;-75
2021/12/05 16:42:12;;;;;;;6.70;4.78;;;;;;;14.25;40.43;101670.84;4865505;29;20061;-76
2021/12/05 16:44:40;;;;;;;10.50;4.50;;;;;;;14.28;40.26;101670.19;4860844;29;20036;-75
2021/12/05 16:47:10;;;;;;;9.43;4.53;;;;;;;14.00;40.90;101675.06;4862318;29;20033;-76
2021/12/05 16:49:40;;;;;;;9.48;4.95;;;;;;;14.11;40.75;101671.72;4862477;29;20025;-76
2021/12/05 16:52:14;;;;;;;16.92;6.05;;;;;;;14.10;40.74;101647.31;4862047;29;20043;-77
2021/12/05 16:54:53;;;;;;;12.70;5.53;;;;;;;14.17;40.87;101650.41;4860794;29;20152;-76